MRLB

Details ICAO MRLB (LIR)
Name Daniel Oduber Quiros Intl
Region Costa Rica
Timezone America/Costa_Rica (UTC-6.0)
Plans Departing 50
Arriving 66
Stats Elevation 270 ft / 82 m (AMSL)
Location 10.593289° -85.544410°
Runways 1
Magnetic Variation 1.039° W
Sunrise 2017-12-10 11:51:01 UTC / 2017-12-10 05:51:01 Local
Sunset 2017-12-10 23:22:04 UTC / 2017-12-10 17:22:04 Local
Advertisement - Login to hide

Runways

ID Width Length Bearing (true) Bearing (mag) Surface Threshold Offset Overrun Length
07 148 ft / 45 m 9,068 ft / 2,764 m 70.05° 71.09° Asphalt 0 ft / 0 m 0 ft / 0 m
25 148 ft / 45 m 9,068 ft / 2,764 m 250.05° 251.09° Asphalt 0 ft / 0 m 0 ft / 0 m

Map

Weather


0- 5 10 15 20 25 30 35+ Temperature / ° C

Clouds and Precipitation
Forecast for 2017-12-11 06:00 UTC. Updated 2 hours ago

Ground ~20,000 ft ~40,000 ft Winds

METAR

MRLB 110200Z 25009KT CAVOK 23/19 A2993 NOSIG

TAF

MRLB 101700Z 1018/1118 23012KT 9999 FEW045 TX30/1019Z TN21/1111Z BECMG 1018/1020 08017G30KT

Frequencies

Ground 121.70 MHz GND
Approach 119.80 MHz LIBERIA APP
Tower 118.80 MHz LIBERIA TWR
Warning: Do not use this data for real-world aviation or navigation. No guarantee of current accuracy is given.